Time;durP1;ratioP1;P1;durP2;ratioP2;P2;SDS_P1;SDS_P2;PMS_P1;PMS_P2;Temp;Humidity;BMP_temperature;BMP_pressure;BME280_temperature;BME280_humidity;BME280_pressure;Samples;Min_cycle;Max_cycle;Signal;HPM_P1;HPM_P2
2022/05/15 00:02:12;;;;;;;;;;;;;;;10.95;67.83;101011.97;4978145;28;1299;-90
2022/05/15 00:04:38;;;;;;;;;;;;;;;11.30;66.60;101007.66;4944745;28;1236;-90
2022/05/15 00:07:04;;;;;;;;;;;;;;;11.21;65.84;101006.53;4974323;28;1348;-89
2022/05/15 00:09:29;;;;;;;;;;;;;;;10.85;67.88;101009.22;4963078;28;1369;-89
2022/05/15 00:11:54;;;;;;;;;;;;;;;11.06;67.29;101014.75;4975548;28;1367;-90
2022/05/15 00:14:19;;;;;;;;;;;;;;;10.78;67.18;101005.91;4976147;28;1475;-89
2022/05/15 00:16:44;;;;;;;;;;;;;;;10.72;68.05;101006.16;4959102;28;1902;-89
2022/05/15 00:19:10;;;;;;;;;;;;;;;11.04;67.06;101005.97;4950480;28;1358;-89
2022/05/15 00:21:36;;;;;;;;;;;;;;;11.14;66.43;101004.06;4942369;29;1395;-90
2022/05/15 00:24:01;;;;;;;;;;;;;;;10.79;66.69;101004.81;4986954;28;1195;-89
2022/05/15 00:26:26;;;;;;;;;;;;;;;10.88;67.09;101005.13;4973110;28;1415;-89
2022/05/15 00:28:52;;;;;;;;;;;;;;;11.03;67.11;101001.59;4957396;28;1374;-89
2022/05/15 00:31:17;;;;;;;;;;;;;;;10.94;66.34;101001.28;4957661;29;1890;-90
2022/05/15 00:33:44;;;;;;;;;;;;;;;11.00;65.87;101005.69;4958669;28;1213;-89
2022/05/15 00:36:09;;;;;;;;;;;;;;;10.90;66.71;101003.72;4955927;29;1902;-89
2022/05/15 00:38:34;;;;;;;;;;;;;;;10.56;67.66;101006.09;4949595;28;1384;-89
2022/05/15 00:40:59;;;;;;;;;;;;;;;10.73;67.94;101010.53;4981285;28;1406;-90
2022/05/15 00:43:37;;;;;;;;;;;;;;;10.89;66.80;101002.09;4958406;28;1313;-89
2022/05/15 00:46:03;;;;;;;;;;;;;;;10.45;66.98;101009.91;4959219;29;1045;-89
2022/05/15 00:48:28;;;;;;;;;;;;;;;10.19;69.06;101006.22;4961255;28;1292;-90
2022/05/15 00:50:54;;;;;;;;;;;;;;;9.96;70.06;101003.84;4946816;29;1427;-89
2022/05/15 00:53:19;;;;;;;;;;;;;;;10.30;70.00;100998.03;4973368;28;1718;-89
2022/05/15 00:55:46;;;;;;;;;;;;;;;10.51;66.61;101003.34;4960632;28;1906;-90
2022/05/15 00:58:17;;;;;;;;;;;;;;;10.24;68.95;100998.03;4951400;28;1340;-89
2022/05/15 01:00:42;;;;;;;;;;;;;;;10.37;68.57;101002.22;4979119;28;1298;-89
2022/05/15 01:03:09;;;;;;;;;;;;;;;10.08;69.84;100998.19;4994454;28;1596;-90
2022/05/15 01:05:35;;;;;;;;;;;;;;;10.25;69.71;101007.06;4983664;28;1629;-90
2022/05/15 01:08:01;;;;;;;;;;;;;;;10.39;69.95;101004.66;4966471;28;1259;-90
2022/05/15 01:10:26;;;;;;;;;;;;;;;10.49;68.22;100994.56;4975216;28;1278;-90
2022/05/15 01:12:52;;;;;;;;;;;;;;;10.39;68.14;100993.69;4960358;28;1324;-89
2022/05/15 01:15:23;;;;;;;;;;;;;;;10.46;68.30;100997.03;4948110;28;1431;-90
2022/05/15 01:17:48;;;;;;;;;;;;;;;10.56;66.79;100991.59;4964827;28;1662;-89
2022/05/15 01:20:16;;;;;;;;;;;;;;;10.45;68.47;100989.91;4964954;28;1302;-89
2022/05/15 01:22:41;;;;;;;;;;;;;;;9.88;70.26;100998.88;4980933;28;1225;-89
2022/05/15 01:25:11;;;;;;;;;;;;;;;10.10;69.72;100996.00;4968138;28;1159;-89
2022/05/15 01:27:36;;;;;;;;;;;;;;;10.39;68.07;100988.22;4953161;28;1373;-89
2022/05/15 01:30:02;;;;;;;;;;;;;;;10.09;68.59;100988.88;4971915;28;1327;-89
2022/05/15 01:32:27;;;;;;;;;;;;;;;10.08;68.99;100990.81;4977664;28;1427;-89
2022/05/15 01:34:52;;;;;;;;;;;;;;;10.06;68.83;100992.16;4962510;28;1690;-90
2022/05/15 01:37:17;;;;;;;;;;;;;;;9.72;69.75;100987.00;4957581;28;1906;-89
2022/05/15 01:39:42;;;;;;;;;;;;;;;9.59;69.70;100981.19;4969678;28;1289;-90
2022/05/15 01:42:08;;;;;;;;;;;;;;;9.32;70.87;100989.44;4959196;28;1361;-89
2022/05/15 01:44:33;;;;;;;;;;;;;;;9.47;70.06;100981.34;4945953;28;1338;-89
2022/05/15 01:46:58;;;;;;;;;;;;;;;9.72;69.43;100984.28;4967385;28;1317;-89
2022/05/15 01:49:23;;;;;;;;;;;;;;;9.62;68.88;100986.09;4945166;29;1318;-89
2022/05/15 01:51:49;;;;;;;;;;;;;;;9.48;69.53;100988.47;4944884;28;1254;-89
2022/05/15 01:54:14;;;;;;;;;;;;;;;9.76;69.02;100992.78;4957402;28;1345;-90
2022/05/15 01:56:40;;;;;;;;;;;;;;;9.60;68.39;100980.94;4955943;29;1895;-90
2022/05/15 01:59:05;;;;;;;;;;;;;;;9.71;69.33;100987.28;4951105;28;1467;-90
2022/05/15 02:01:31;;;;;;;;;;;;;;;9.68;68.10;100988.63;4958295;29;961;-89
2022/05/15 02:03:56;;;;;;;;;;;;;;;9.80;68.50;100997.47;4990339;28;1240;-90
2022/05/15 02:06:21;;;;;;;;;;;;;;;9.88;68.04;100988.75;4993357;28;1127;-89
2022/05/15 02:08:47;;;;;;;;;;;;;;;9.97;68.32;100991.00;4965896;28;1440;-90
2022/05/15 02:11:13;;;;;;;;;;;;;;;9.93;68.34;100987.97;4953844;28;1206;-90
2022/05/15 02:13:38;;;;;;;;;;;;;;;9.94;68.22;100992.38;4966387;28;1121;-89
2022/05/15 02:16:03;;;;;;;;;;;;;;;9.59;68.95;100989.38;4949993;28;1898;-89
2022/05/15 02:18:28;;;;;;;;;;;;;;;9.22;70.88;100994.81;4961168;28;1357;-89
2022/05/15 02:20:54;;;;;;;;;;;;;;;9.55;70.14;100989.06;4951243;28;1389;-89
2022/05/15 02:23:19;;;;;;;;;;;;;;;9.71;69.34;100987.28;4959105;28;1278;-89
2022/05/15 02:25:44;;;;;;;;;;;;;;;9.38;70.13;100991.94;4959848;28;1283;-89
2022/05/15 02:28:09;;;;;;;;;;;;;;;9.58;69.14;100987.75;4967262;28;1411;-89
2022/05/15 02:30:35;;;;;;;;;;;;;;;9.56;69.08;100990.72;4976635;28;1675;-90
2022/05/15 02:33:01;;;;;;;;;;;;;;;9.14;69.59;100987.09;4954761;28;1234;-89
2022/05/15 02:35:26;;;;;;;;;;;;;;;9.35;70.06;100988.94;4971068;28;1879;-89
2022/05/15 02:37:51;;;;;;;;;;;;;;;9.40;69.33;100992.53;4967231;28;1454;-90
2022/05/15 02:40:18;;;;;;;;;;;;;;;9.28;69.54;100989.13;4940724;29;1303;-89
2022/05/15 02:42:44;;;;;;;;;;;;;;;8.93;70.09;100983.34;4963309;28;1256;-89
2022/05/15 02:45:09;;;;;;;;;;;;;;;9.22;70.27;100987.44;4954282;28;1291;-89
2022/05/15 02:47:34;;;;;;;;;;;;;;;9.30;68.64;100981.50;4957449;28;1309;-89
2022/05/15 02:52:44;;;;;;;;;;;;;;;9.40;68.14;100987.06;4962475;28;1630;-89
2022/05/15 02:55:10;;;;;;;;;;;;;;;9.22;67.92;100986.63;4944319;29;1558;-90
2022/05/15 02:57:36;;;;;;;;;;;;;;;8.96;69.21;100991.00;4957113;28;1953;-89
2022/05/15 03:00:02;;;;;;;;;;;;;;;8.71;69.63;100989.66;4959970;28;1774;-89
2022/05/15 03:02:27;;;;;;;;;;;;;;;8.44;69.54;100987.97;4973584;28;1254;-90
2022/05/15 03:04:52;;;;;;;;;;;;;;;8.40;71.39;100990.41;4958667;28;1116;-89
2022/05/15 03:07:18;;;;;;;;;;;;;;;8.79;69.90;100996.56;4941141;29;1667;-89
2022/05/15 03:09:43;;;;;;;;;;;;;;;8.82;69.67;100996.06;4969472;28;1585;-90
2022/05/15 03:12:08;;;;;;;;;;;;;;;8.55;70.00;100989.75;4963630;28;1170;-90
2022/05/15 03:14:33;;;;;;;;;;;;;;;8.63;71.09;100989.28;4975046;28;1324;-88
2022/05/15 03:16:58;;;;;;;;;;;;;;;8.91;69.17;100988.25;4960159;28;1890;-90
2022/05/15 03:19:24;;;;;;;;;;;;;;;9.04;69.34;100993.28;4973272;28;1839;-89
2022/05/15 03:21:49;;;;;;;;;;;;;;;9.09;68.56;100990.59;4977526;28;1511;-89
2022/05/15 03:24:14;;;;;;;;;;;;;;;8.89;69.46;100998.59;4963767;28;1358;-90
2022/05/15 03:26:41;;;;;;;;;;;;;;;8.29;71.63;100999.50;4982239;28;1231;-90
2022/05/15 03:29:07;;;;;;;;;;;;;;;8.57;71.27;100999.34;4951145;28;1471;-90
2022/05/15 03:31:35;;;;;;;;;;;;;;;8.78;69.89;100994.91;4958564;28;1378;-89
2022/05/15 03:34:01;;;;;;;;;;;;;;;8.65;70.36;101000.78;4945730;28;1330;-89
2022/05/15 03:36:26;;;;;;;;;;;;;;;8.74;69.52;101001.97;4958553;29;1974;-89
2022/05/15 03:38:52;;;;;;;;;;;;;;;7.93;72.78;101011.81;4961347;28;973;-89
2022/05/15 03:41:17;;;;;;;;;;;;;;;8.37;71.19;101010.00;4951783;28;1930;-89
2022/05/15 03:43:43;;;;;;;;;;;;;;;8.22;70.31;101010.59;4951524;28;1474;-89
2022/05/15 03:46:08;;;;;;;;;;;;;;;7.64;72.75;101011.13;4966207;28;1902;-90
2022/05/15 03:48:34;;;;;;;;;;;;;;;7.68;74.28;101019.59;4961812;28;1782;-89
2022/05/15 03:50:59;;;;;;;;;;;;;;;8.05;72.47;101014.44;4962059;28;1315;-89
2022/05/15 03:53:25;;;;;;;;;;;;;;;7.47;72.15;100988.50;4952282;28;1228;-89
2022/05/15 03:55:55;;;;;;;;;;;;;;;7.37;73.67;101018.28;4944105;28;1949;-89
2022/05/15 03:58:20;;;;;;;;;;;;;;;7.53;74.87;101020.19;4974770;28;1531;-90
2022/05/15 04:00:45;;;;;;;;;;;;;;;7.89;73.79;101022.41;4971200;28;1875;-89
2022/05/15 04:03:10;;;;;;;;;;;;;;;8.17;72.24;101031.50;4979375;28;909;-89
2022/05/15 04:05:35;;;;;;;;;;;;;;;8.12;71.98;101032.25;4962543;28;1561;-89
2022/05/15 04:08:02;;;;;;;;;;;;;;;8.32;73.03;101039.94;4970064;28;1316;-89
2022/05/15 04:10:30;;;;;;;;;;;;;;;8.47;70.78;101031.94;4943131;28;1525;-89
2022/05/15 04:12:55;;;;;;;;;;;;;;;8.31;71.63;101030.09;4956353;28;1374;-88
2022/05/15 04:15:20;;;;;;;;;;;;;;;8.37;71.72;101037.25;4959873;28;1245;-89
2022/05/15 04:17:47;;;;;;;;;;;;;;;8.49;71.18;101028.97;4954657;29;1886;-90
2022/05/15 04:20:13;;;;;;;;;;;;;;;8.56;70.93;101024.97;4956101;28;1292;-89
2022/05/15 04:22:38;;;;;;;;;;;;;;;8.54;72.10;101024.38;4975187;28;1424;-90
2022/05/15 04:25:04;;;;;;;;;;;;;;;8.67;71.14;101024.03;4980417;28;1823;-90
2022/05/15 04:27:29;;;;;;;;;;;;;;;8.71;71.83;101033.34;4965135;28;1180;-90
2022/05/15 04:29:54;;;;;;;;;;;;;;;8.83;71.15;101030.47;4955112;28;1367;-90
2022/05/15 04:32:19;;;;;;;;;;;;;;;8.91;71.47;101031.91;4978085;28;1032;-90
2022/05/15 04:34:44;;;;;;;;;;;;;;;8.91;70.39;101029.19;4978461;28;1849;-89
2022/05/15 04:37:10;;;;;;;;;;;;;;;8.43;72.99;101035.41;4975168;28;1871;-90
2022/05/15 04:39:35;;;;;;;;;;;;;;;8.70;72.84;101026.22;4972766;28;1273;-89
2022/05/15 04:42:01;;;;;;;;;;;;;;;8.93;72.67;101036.03;4959300;29;787;-89
2022/05/15 04:44:26;;;;;;;;;;;;;;;8.93;71.72;101036.03;4951295;28;1522;-89
2022/05/15 04:46:51;;;;;;;;;;;;;;;8.91;72.07;101035.47;4980677;28;1170;-89
2022/05/15 04:49:16;;;;;;;;;;;;;;;8.80;73.09;101035.59;4979458;28;1645;-89
2022/05/15 04:51:42;;;;;;;;;;;;;;;8.90;73.19;101038.47;4956850;28;1678;-89
2022/05/15 04:54:07;;;;;;;;;;;;;;;9.01;72.48;101037.50;4962478;28;1475;-89
2022/05/15 04:56:32;;;;;;;;;;;;;;;9.06;73.27;101038.38;4969309;28;1915;-89
2022/05/15 04:58:57;;;;;;;;;;;;;;;9.22;73.08;101035.78;4992433;28;1312;-90
2022/05/15 05:01:25;;;;;;;;;;;;;;;9.28;72.40;101046.50;4959417;28;1403;-89
2022/05/15 05:03:51;;;;;;;;;;;;;;;9.36;72.33;101039.72;4954802;28;1353;-89
2022/05/15 05:06:16;;;;;;;;;;;;;;;9.45;72.15;101043.63;4963356;28;1207;-90
2022/05/15 05:08:41;;;;;;;;;;;;;;;9.48;72.22;101041.22;4949936;28;1758;-89
2022/05/15 05:11:06;;;;;;;;;;;;;;;9.56;72.24;101048.13;4952129;28;1480;-89
2022/05/15 05:13:32;;;;;;;;;;;;;;;9.61;73.28;101037.22;4975267;28;1823;-89
2022/05/15 05:15:57;;;;;;;;;;;;;;;9.69;73.13;101028.56;4975661;28;1963;-89
2022/05/15 05:18:22;;;;;;;;;;;;;;;9.61;74.08;101033.69;4958532;28;1324;-89
2022/05/15 05:20:47;;;;;;;;;;;;;;;9.55;75.33;101034.72;4959868;28;1308;-89
2022/05/15 05:23:13;;;;;;;;;;;;;;;9.65;75.24;101032.06;4960086;28;1357;-89
2022/05/15 05:25:38;;;;;;;;;;;;;;;9.84;74.97;101036.03;4974486;28;1491;-90
2022/05/15 05:28:04;;;;;;;;;;;;;;;9.93;75.45;101036.38;4942166;28;1346;-89
2022/05/15 05:30:30;;;;;;;;;;;;;;;10.01;75.76;101033.97;4968189;28;1354;-90
2022/05/15 05:32:55;;;;;;;;;;;;;;;10.15;75.65;101040.63;4954062;28;1483;-89
2022/05/15 05:35:21;;;;;;;;;;;;;;;10.27;75.00;101036.91;4984682;28;1392;-89
2022/05/15 05:37:46;;;;;;;;;;;;;;;10.37;75.16;101040.50;4960254;28;1898;-89
2022/05/15 05:40:12;;;;;;;;;;;;;;;10.43;74.02;101046.81;4953734;28;2020;-89
2022/05/15 05:42:37;;;;;;;;;;;;;;;10.32;75.36;101043.22;4968068;28;1707;-90
2022/05/15 05:45:03;;;;;;;;;;;;;;;10.46;74.65;101046.31;4958512;28;1689;-89
2022/05/15 05:47:29;;;;;;;;;;;;;;;10.60;74.42;101045.53;4969298;28;1873;-90
2022/05/15 05:54:56;;;;;;;;;;;;;;;10.80;74.70;101052.19;4993314;28;1115;-90
2022/05/15 05:57:33;;;;;;;;;;;;;;;10.77;74.19;101053.53;4988103;28;1906;-90
2022/05/15 05:59:58;;;;;;;;;;;;;;;10.85;74.53;101041.25;4969705;28;1736;-90
2022/05/15 06:02:25;;;;;;;;;;;;;;;10.84;74.65;101039.59;4963018;28;1217;-90
2022/05/15 06:04:50;;;;;;;;;;;;;;;10.91;75.11;101038.25;4954822;28;1380;-88
2022/05/15 06:07:17;;;;;;;;;;;;;;;10.92;75.26;101034.41;4973268;28;1339;-90
2022/05/15 06:09:44;;;;;;;;;;;;;;;11.07;75.15;101038.28;4973826;28;1342;-90
2022/05/15 06:12:10;;;;;;;;;;;;;;;11.15;75.20;101035.84;4970145;28;1508;-90
2022/05/15 06:14:36;;;;;;;;;;;;;;;11.21;74.87;101040.25;4955673;28;1357;-89
2022/05/15 06:17:01;;;;;;;;;;;;;;;11.22;74.97;101041.06;4967971;28;1902;-88
2022/05/15 06:19:26;;;;;;;;;;;;;;;11.29;74.82;101036.16;4960897;28;1362;-89
2022/05/15 06:21:51;;;;;;;;;;;;;;;11.28;74.85;101034.50;4957976;28;1406;-90
2022/05/15 06:24:16;;;;;;;;;;;;;;;11.30;74.62;101038.63;4958026;28;1019;-90
2022/05/15 06:26:41;;;;;;;;;;;;;;;11.43;74.29;101031.78;4956517;28;1209;-89
2022/05/15 06:29:07;;;;;;;;;;;;;;;11.39;74.54;101027.94;4964573;28;1353;-90
2022/05/15 06:31:32;;;;;;;;;;;;;;;11.45;74.59;101024.09;4960834;28;1619;-90
2022/05/15 06:33:57;;;;;;;;;;;;;;;11.56;74.35;101027.69;4964653;28;1371;-89
2022/05/15 06:36:25;;;;;;;;;;;;;;;11.64;74.84;101030.69;4960812;28;1894;-90
2022/05/15 06:38:51;;;;;;;;;;;;;;;11.70;74.43;101032.31;4982157;28;1829;-90
2022/05/15 06:41:18;;;;;;;;;;;;;;;11.73;74.32;101025.47;4957907;28;1525;-90
2022/05/15 06:43:43;;;;;;;;;;;;;;;11.74;74.81;101022.47;4970173;28;1649;-89
2022/05/15 06:46:11;;;;;;;;;;;;;;;11.78;74.53;101028.25;4961869;28;1675;-90
2022/05/15 06:48:39;;;;;;;;;;;;;;;11.74;74.13;101022.47;4968996;28;1221;-90
2022/05/15 06:53:57;;;;;;;;;;;;;;;11.86;73.72;101021.38;4956992;29;806;-89
2022/05/15 06:59:06;;;;;;;;;;;;;;;12.07;73.70;101025.75;4979358;28;680;-90
2022/05/15 07:01:32;;;;;;;;;;;;;;;12.18;73.30;101021.03;4959101;28;1414;-90
2022/05/15 07:03:57;;;;;;;;;;;;;;;12.23;73.31;101024.59;4961278;28;1403;-90
2022/05/15 07:06:22;;;;;;;;;;;;;;;12.31;72.85;101026.78;4977005;28;1317;-90
2022/05/15 07:12:13;;;;;;;;;;;;;;;12.47;73.10;101028.34;4987033;28;1338;-89
2022/05/15 07:14:38;;;;;;;;;;;;;;;12.54;72.84;101019.00;4976368;28;1263;-89
2022/05/15 07:17:04;;;;;;;;;;;;;;;12.59;72.28;101027.22;4977695;28;1943;-89
2022/05/15 07:19:29;;;;;;;;;;;;;;;12.65;72.67;101015.13;4985334;28;1851;-90
2022/05/15 07:25:07;;;;;;;;;;;;;;;12.82;73.45;101021.91;4962812;28;1391;-90
2022/05/15 07:27:35;;;;;;;;;;;;;;;12.89;71.54;101019.66;4978088;28;1616;-90
2022/05/15 07:30:04;;;;;;;;;;;;;;;12.92;71.95;101025.69;5003341;28;1494;-91
2022/05/15 07:36:21;;;;;;;;;;;;;;;13.07;71.54;101011.84;4946104;29;1936;-90
2022/05/15 09:04:25;;;;;;;;;;;;;;;15.24;67.25;100961.03;5000789;28;1785;-88
2022/05/15 09:06:57;;;;;;;;;;;;;;;15.26;66.14;100967.88;4988616;28;1182;-89
2022/05/15 09:09:28;;;;;;;;;;;;;;;15.27;65.05;100958.50;4979900;28;1436;-89
2022/05/15 09:12:03;;;;;;;;;;;;;;;15.37;64.95;100961.09;4977742;28;1210;-89
2022/05/15 09:14:48;;;;;;;;;;;;;;;15.59;63.58;100962.41;4972810;28;1454;-90
2022/05/15 09:17:18;;;;;;;;;;;;;;;15.60;62.75;100958.53;4957203;28;1907;-89
2022/05/15 09:19:47;;;;;;;;;;;;;;;15.57;61.69;100959.16;4940778;28;1334;-87
2022/05/15 09:22:13;;;;;;;;;;;;;;;15.65;62.50;100958.44;4940682;29;1246;-87
2022/05/15 09:24:43;;;;;;;;;;;;;;;15.76;62.12;100955.19;4973256;28;1412;-90
2022/05/15 09:27:12;;;;;;;;;;;;;;;15.95;60.79;100970.84;4965083;28;1377;-89
2022/05/15 09:29:38;;;;;;;;;;;;;;;15.99;61.01;100972.69;4959162;28;1285;-89
2022/05/15 09:32:06;;;;;;;;;;;;;;;15.97;59.05;100963.09;4963106;28;1185;-89
2022/05/15 09:34:36;;;;;;;;;;;;;;;15.93;60.60;100971.16;4959778;28;1483;-89
2022/05/15 09:44:56;;;;;;;;;;;;;;;16.43;60.56;100961.03;4993890;28;1309;-89
2022/05/15 09:47:27;;;;;;;;;;;;;;;16.37;60.19;100961.47;4978472;28;1269;-89
2022/05/15 09:49:53;;;;;;;;;;;;;;;16.35;60.34;100955.41;4978652;28;1267;-89
2022/05/15 09:52:33;;;;;;;;;;;;;;;16.30;59.98;100961.88;4978204;28;1237;-91
2022/05/15 09:55:18;;;;;;;;;;;;;;;16.42;57.59;100950.28;4978779;28;1499;-91
2022/05/15 09:57:58;;;;;;;;;;;;;;;16.43;58.18;100944.47;4978237;28;1973;-90
2022/05/15 10:00:28;;;;;;;;;;;;;;;16.54;58.06;100948.66;4978729;28;1253;-89
2022/05/15 10:03:04;;;;;;;;;;;;;;;;;;;;;
2022/05/15 10:05:31;;;;;;;;;;;;;;;16.80;59.18;100937.88;4995600;28;1336;-89
2022/05/15 10:08:20;;;;;;;;;;;;;;;16.77;60.36;100932.97;4978417;28;1304;-90
2022/05/15 10:10:59;;;;;;;;;;;;;;;16.77;59.55;100932.16;4979519;28;1332;-90
2022/05/15 10:20:05;;;;;;;;;;;;;;;;;;;;;
2022/05/15 10:22:49;;;;;;;;;;;;;;;17.08;58.71;100940.56;4995315;28;703;-91
2022/05/15 10:26:32;;;;;;;;;;;;;;;;;;;;;
2022/05/15 10:38:02;;;;;;;;;;;;;;;17.18;56.45;100918.19;4914795;29;1996;-89
2022/05/15 10:47:08;;;;;;;;;;;;;;;17.44;54.64;100912.84;4896954;29;905;-89
2022/05/15 10:50:18;;;;;;;;;;;;;;;17.35;55.35;100907.25;4859376;29;1200;-89
2022/05/15 10:53:02;;;;;;;;;;;;;;;17.40;55.03;100904.34;4880724;29;1112;-89
2022/05/15 10:58:20;;;;;;;;;;;;;;;17.57;57.20;100898.09;4995112;28;1906;-89
2022/05/15 11:04:17;;;;;;;;;;;;;;;17.64;57.32;100892.94;4966272;28;1032;-90
2022/05/15 11:07:08;;;;;;;;;;;;;;;17.71;56.64;100885.81;4980267;28;844;-91
2022/05/15 11:09:51;;;;;;;;;;;;;;;17.80;55.69;100888.59;4957760;28;1457;-90
2022/05/15 11:12:36;;;;;;;;;;;;;;;17.84;56.79;100877.72;4958112;28;1327;-91
2022/05/15 11:15:20;;;;;;;;;;;;;;;17.87;56.84;100882.59;4975859;28;772;-89
2022/05/15 11:18:11;;;;;;;;;;;;;;;17.93;54.31;100881.34;4974301;28;1898;-90
2022/05/15 11:20:47;;;;;;;;;;;;;;;17.96;56.95;100877.91;4974578;28;1355;-90
2022/05/15 11:23:42;;;;;;;;;;;;;;;;;;;;;
2022/05/15 11:26:40;;;;;;;;;;;;;;;18.00;54.67;100865.88;4915674;29;1075;-90
2022/05/15 11:29:17;;;;;;;;;;;;;;;18.02;54.41;100862.81;4959918;28;1143;-88
2022/05/15 11:31:44;;;;;;;;;;;;;;;18.09;49.95;100858.41;4958372;28;1246;-91
2022/05/15 11:34:15;;;;;;;;;;;;;;;18.08;51.36;100858.72;4979515;28;1216;-90
2022/05/15 11:36:52;;;;;;;;;;;;;;;18.10;50.56;100851.75;4980794;28;1978;-91
2022/05/15 11:42:31;;;;;;;;;;;;;;;18.51;50.06;100843.00;4974978;28;581;-91
2022/05/15 11:45:16;;;;;;;;;;;;;;;18.54;51.08;100842.31;4957801;28;1147;-91
2022/05/15 11:47:56;;;;;;;;;;;;;;;18.54;52.76;100838.78;4972634;28;1356;-91
2022/05/15 11:51:40;;;;;;;;;;;;;;;;;;;;;
2022/05/15 11:57:10;;;;;;;;;;;;;;;18.56;52.03;100830.91;4935771;29;1972;-91
2022/05/15 11:59:51;;;;;;;;;;;;;;;18.64;50.09;100821.00;4958309;28;1317;-91
2022/05/15 12:02:38;;;;;;;;;;;;;;;18.73;50.18;100827.34;4985440;28;1299;-92
2022/05/15 12:05:34;;;;;;;;;;;;;;;18.73;49.63;100814.31;4997589;28;1771;-92
2022/05/15 12:08:19;;;;;;;;;;;;;;;18.94;52.04;100824.75;4984705;28;1186;-91
2022/05/15 12:10:45;;;;;;;;;;;;;;;19.07;52.56;100827.31;4999904;28;1340;-91
2022/05/15 12:16:27;;;;;;;;;;;;;;;19.29;53.02;100817.97;5004269;28;1898;-91
2022/05/15 12:18:55;;;;;;;;;;;;;;;19.32;50.91;100811.75;4981627;28;1297;-91
2022/05/15 12:21:23;;;;;;;;;;;;;;;19.31;51.55;100810.09;4983779;28;1289;-89
2022/05/15 12:26:37;;;;;;;;;;;;;;;19.31;49.49;100804.56;4980686;28;627;-91
2022/05/15 12:29:21;;;;;;;;;;;;;;;19.38;49.63;100804.88;4976780;28;1165;-90
2022/05/15 12:31:46;;;;;;;;;;;;;;;19.41;48.07;100795.06;4995647;28;1288;-90
2022/05/15 12:34:13;;;;;;;;;;;;;;;19.43;49.23;100799.13;5003700;28;1488;-91
2022/05/15 12:36:46;;;;;;;;;;;;;;;19.51;50.59;100791.94;4988313;28;1894;-89
2022/05/15 12:39:15;;;;;;;;;;;;;;;19.75;51.10;100791.34;4979415;28;1305;-89
2022/05/15 12:41:42;;;;;;;;;;;;;;;19.84;49.99;100794.88;4978963;28;1563;-90
2022/05/15 12:44:10;;;;;;;;;;;;;;;19.83;50.00;100790.47;4983548;28;1376;-90
2022/05/15 12:46:37;;;;;;;;;;;;;;;19.85;48.86;100785.41;5004404;28;1221;-90
2022/05/15 12:49:03;;;;;;;;;;;;;;;19.82;48.74;100791.66;5001588;28;1470;-89
2022/05/15 12:51:33;;;;;;;;;;;;;;;19.87;48.53;100786.72;4997209;28;1416;-88
2022/05/15 12:53:59;;;;;;;;;;;;;;;19.97;48.76;100780.75;4979169;28;1219;-88
2022/05/15 12:56:25;;;;;;;;;;;;;;;19.97;48.68;100772.44;4995266;28;1905;-90
2022/05/15 12:58:52;;;;;;;;;;;;;;;20.08;45.70;100772.00;4995453;28;1300;-89
2022/05/15 13:01:18;;;;;;;;;;;;;;;20.18;47.30;100779.94;4979322;28;1566;-90
2022/05/15 13:03:47;;;;;;;;;;;;;;;20.16;48.34;100769.16;4979048;28;1222;-89
2022/05/15 13:06:16;;;;;;;;;;;;;;;20.25;45.45;100761.56;4981090;28;1539;-91
2022/05/15 13:08:42;;;;;;;;;;;;;;;20.44;46.25;100763.09;4997529;28;1256;-89
2022/05/15 13:11:07;;;;;;;;;;;;;;;20.56;44.80;100760.38;4999022;28;1221;-90
2022/05/15 13:13:37;;;;;;;;;;;;;;;20.72;45.91;100759.41;4980706;28;1255;-91
2022/05/15 13:16:03;;;;;;;;;;;;;;;20.88;46.10;100756.78;5007179;28;1903;-91
2022/05/15 13:18:31;;;;;;;;;;;;;;;21.26;45.54;100751.00;4994258;28;1705;-90
2022/05/15 13:21:01;;;;;;;;;;;;;;;25.06;38.82;100747.09;4977989;28;1370;-90
2022/05/15 13:23:30;;;;;;;;;;;;;;;29.13;30.01;100739.22;4982289;28;1638;-91
2022/05/15 13:25:55;;;;;;;;;;;;;;;31.11;27.13;100732.28;5014785;28;1702;-88
2022/05/15 13:28:21;;;;;;;;;;;;;;;32.93;25.66;100736.84;4996325;28;1579;-91
2022/05/15 13:30:46;;;;;;;;;;;;;;;33.57;24.45;100733.81;4998721;28;1600;-90
2022/05/15 13:33:16;;;;;;;;;;;;;;;34.31;23.89;100720.28;4992290;28;1234;-93
2022/05/15 13:35:49;;;;;;;;;;;;;;;34.77;21.10;100719.31;4986520;28;1358;-89
2022/05/15 13:43:17;;;;;;;;;;;;;;;35.34;20.69;100726.50;4984249;28;1886;-90
2022/05/15 13:44:08;;;;;;;;;;;;;;;35.20;20.97;100724.78;4999219;28;1233;-90
2022/05/15 13:46:34;;;;;;;;;;;;;;;35.60;19.99;100721.75;4972892;28;1391;-91
2022/05/15 13:49:01;;;;;;;;;;;;;;;35.93;19.74;100722.50;4997522;28;1393;-88
2022/05/15 13:51:31;;;;;;;;;;;;;;;36.29;20.05;100714.59;4989136;28;1341;-89
2022/05/15 13:54:23;;;;;;;;;;;;;;;36.06;19.27;100709.13;4997858;28;1161;-91
2022/05/15 13:57:08;;;;;;;;;;;;;;;33.91;22.54;100704.44;4977020;28;1928;-90
2022/05/15 13:59:34;;;;;;;;;;;;;;;33.87;22.11;100698.00;4999186;28;1437;-94
2022/05/15 14:02:05;;;;;;;;;;;;;;;32.19;22.98;100702.59;5007847;28;1462;-92
2022/05/15 14:04:31;;;;;;;;;;;;;;;30.74;24.25;100696.16;4989507;28;1356;-91
2022/05/15 14:06:56;;;;;;;;;;;;;;;30.23;23.90;100696.78;4992848;28;1423;-89
2022/05/15 14:09:23;;;;;;;;;;;;;;;31.23;23.79;100696.22;4989677;28;1595;-90
2022/05/15 14:11:48;;;;;;;;;;;;;;;29.23;25.61;100692.50;4994515;28;1403;-90
2022/05/15 14:14:13;;;;;;;;;;;;;;;28.41;27.78;100700.75;4981484;28;1219;-90
2022/05/15 14:16:39;;;;;;;;;;;;;;;28.27;28.99;100699.91;5000573;28;1906;-90
2022/05/15 14:19:12;;;;;;;;;;;;;;;28.19;28.44;100699.88;5012516;28;1475;-91
2022/05/15 14:21:53;;;;;;;;;;;;;;;28.36;27.63;100698.34;5012084;28;1835;-91
2022/05/15 14:24:19;;;;;;;;;;;;;;;28.01;27.30;100682.06;4997440;28;1648;-89
2022/05/15 14:26:44;;;;;;;;;;;;;;;29.00;27.12;100683.63;4991598;28;1356;-92
2022/05/15 14:29:09;;;;;;;;;;;;;;;28.88;26.35;100682.00;4986129;28;1236;-91
2022/05/15 14:31:39;;;;;;;;;;;;;;;28.58;25.97;100682.34;4978941;28;1310;-92
2022/05/15 14:34:04;;;;;;;;;;;;;;;27.55;27.46;100673.38;4970509;28;1261;-92
2022/05/15 14:36:30;;;;;;;;;;;;;;;27.01;27.79;100669.28;4995967;28;1890;-93
2022/05/15 14:38:55;;;;;;;;;;;;;;;26.75;29.23;100667.41;4993068;28;1210;-91
2022/05/15 14:41:20;;;;;;;;;;;;;;;27.08;29.02;100660.94;4986708;28;1987;-90
2022/05/15 14:43:45;;;;;;;;;;;;;;;27.14;29.43;100664.16;4989931;28;1324;-91
2022/05/15 14:46:15;;;;;;;;;;;;;;;27.74;28.49;100661.81;5010797;28;1122;-91
2022/05/15 14:48:43;;;;;;;;;;;;;;;27.90;27.35;100652.28;4975936;28;1299;-92
2022/05/15 14:51:16;;;;;;;;;;;;;;;27.69;28.84;100653.75;4995737;28;1462;-93
2022/05/15 14:53:42;;;;;;;;;;;;;;;28.41;29.09;100654.94;5004848;28;1170;-92
2022/05/15 14:56:14;;;;;;;;;;;;;;;27.84;27.50;100649.00;4979024;28;1894;-93
2022/05/15 14:58:43;;;;;;;;;;;;;;;27.58;29.00;100647.25;4985054;28;1904;-92
2022/05/15 15:01:09;;;;;;;;;;;;;;;27.15;28.06;100657.34;4995083;28;1379;-93
2022/05/15 15:03:34;;;;;;;;;;;;;;;27.31;28.02;100654.25;4980151;28;1685;-89
2022/05/15 15:06:00;;;;;;;;;;;;;;;27.31;27.66;100649.44;5006588;28;1126;-91
2022/05/15 15:08:26;;;;;;;;;;;;;;;26.93;27.24;100649.97;4997120;28;1217;-89
2022/05/15 15:11:06;;;;;;;;;;;;;;;26.32;28.81;100640.06;4996838;28;1213;-92
2022/05/15 15:13:31;;;;;;;;;;;;;;;26.05;31.33;100647.72;4975749;28;1188;-90
2022/05/15 15:15:57;;;;;;;;;;;;;;;26.25;30.46;100640.78;4975294;28;1277;-90
2022/05/15 15:18:22;;;;;;;;;;;;;;;26.18;31.42;100637.09;4981709;28;1911;-91
2022/05/15 15:20:47;;;;;;;;;;;;;;;26.21;30.29;100637.09;4975858;28;1348;-90
2022/05/15 15:23:12;;;;;;;;;;;;;;;26.38;31.22;100636.53;4974172;28;1219;-92
2022/05/15 15:25:38;;;;;;;;;;;;;;;26.44;30.42;100639.81;4959631;28;1278;-90
2022/05/15 15:28:03;;;;;;;;;;;;;;;26.45;31.11;100635.81;4997179;28;1872;-91
2022/05/15 15:30:28;;;;;;;;;;;;;;;26.40;29.25;100627.72;4981000;28;1202;-93
2022/05/15 15:32:53;;;;;;;;;;;;;;;26.53;28.51;100626.28;4980386;28;1330;-89
2022/05/15 15:35:18;;;;;;;;;;;;;;;26.36;30.08;100632.50;4995827;28;1232;-92
2022/05/15 15:40:29;;;;;;;;;;;;;;;26.40;28.14;100615.69;5010000;28;1309;-89
2022/05/15 15:42:55;;;;;;;;;;;;;;;26.03;29.44;100608.03;4996771;28;1265;-89
2022/05/15 15:45:20;;;;;;;;;;;;;;;25.82;29.87;100607.78;4980438;28;824;-92
2022/05/15 15:47:45;;;;;;;;;;;;;;;25.99;29.94;100607.19;4981930;28;1411;-90